createdAt,value
2023-05-01T00:01:58.649Z,3.42
2023-05-01T00:04:27.417Z,3.72
2023-05-01T00:06:56.093Z,3.15
2023-05-01T00:09:24.829Z,2.80
2023-05-01T00:11:53.545Z,3.20
2023-05-01T00:14:22.233Z,3.00
2023-05-01T00:16:51.196Z,3.30
2023-05-01T00:19:21.572Z,2.95
2023-05-01T00:21:52.567Z,3.22
2023-05-01T00:24:21.259Z,2.90
2023-05-01T00:26:49.970Z,3.47
2023-05-01T00:29:18.678Z,2.88
2023-05-01T00:31:47.734Z,3.10
2023-05-01T00:34:16.851Z,2.90
2023-05-01T00:36:48.103Z,2.95
2023-05-01T00:39:18.355Z,3.25
2023-05-01T00:41:47.081Z,3.20
2023-05-01T00:44:16.781Z,3.20
2023-05-01T00:46:45.571Z,3.08
2023-05-01T00:49:14.500Z,3.10
2023-05-01T00:51:44.407Z,2.90
2023-05-01T00:54:14.564Z,3.13
2023-05-01T00:56:43.428Z,2.92
2023-05-01T00:59:12.813Z,3.13
2023-05-01T01:01:43.826Z,3.33
2023-05-01T01:04:12.719Z,2.55
2023-05-01T01:06:53.216Z,3.10
2023-05-01T01:09:37.860Z,2.65
2023-05-01T01:12:20.974Z,2.83
2023-05-01T01:14:59.788Z,3.38
2023-05-01T01:17:37.785Z,3.05
2023-05-01T01:20:26.210Z,3.80
2023-05-01T01:23:13.513Z,3.10
2023-05-01T01:26:15.035Z,3.38
2023-05-01T01:29:33.543Z,2.95
2023-05-01T01:32:19.364Z,3.20
2023-05-01T01:34:55.390Z,3.30
2023-05-01T01:37:30.381Z,3.20
2023-05-01T01:40:08.209Z,2.78
2023-05-01T01:42:42.780Z,3.33
2023-05-01T01:45:23.330Z,3.22
2023-05-01T01:47:55.955Z,2.80
2023-05-01T01:50:29.741Z,3.33
2023-05-01T01:53:03.407Z,3.25
2023-05-01T01:55:35.918Z,3.47
2023-05-01T01:58:07.592Z,3.22
2023-05-01T02:00:38.151Z,2.97
2023-05-01T02:03:08.579Z,2.58
2023-05-01T02:05:41.734Z,3.05
2023-05-01T02:08:12.822Z,3.40
2023-05-01T02:10:44.192Z,3.30
2023-05-01T02:13:15.527Z,3.10
2023-05-01T02:15:47.140Z,3.15
2023-05-01T02:18:17.772Z,3.42
2023-05-01T02:20:48.749Z,3.30
2023-05-01T02:23:18.157Z,2.72
2023-05-01T02:25:50.484Z,3.38
2023-05-01T02:28:25.671Z,3.47
2023-05-01T02:30:54.666Z,3.17
2023-05-01T02:33:23.309Z,2.80
2023-05-01T02:35:54.063Z,3.22
2023-05-01T02:38:22.878Z,3.40
2023-05-01T02:40:57.835Z,3.40
2023-05-01T02:43:28.791Z,3.38
2023-05-01T02:46:00.268Z,3.20
2023-05-01T02:48:32.632Z,3.03
2023-05-01T02:51:04.786Z,3.65
2023-05-01T02:53:34.817Z,3.90
2023-05-01T02:56:07.921Z,2.95
2023-05-01T02:58:37.465Z,3.63
2023-05-01T03:01:06.333Z,3.45
2023-05-01T03:03:35.490Z,3.83
2023-05-01T03:06:05.853Z,4.22
2023-05-01T03:08:34.614Z,3.28
2023-05-01T03:11:07.445Z,3.78
2023-05-01T03:13:36.609Z,3.80
2023-05-01T03:16:05.770Z,4.43
2023-05-01T03:18:34.472Z,3.83
2023-05-01T03:21:04.575Z,4.10
2023-05-01T03:23:33.303Z,3.95
2023-05-01T03:26:02.022Z,3.92
2023-05-01T03:28:30.643Z,4.65
2023-05-01T03:30:59.333Z,4.20
2023-05-01T03:33:28.053Z,3.65
2023-05-01T03:36:06.279Z,4.07
2023-05-01T03:38:35.345Z,3.53
2023-05-01T03:41:05.419Z,3.17
2023-05-01T03:43:34.256Z,3.63
2023-05-01T03:46:02.956Z,3.70
2023-05-01T03:48:31.637Z,3.78
2023-05-01T03:51:00.365Z,3.75
2023-05-01T03:53:30.486Z,3.85
2023-05-01T03:55:59.109Z,3.75
2023-05-01T03:58:27.724Z,4.03
2023-05-01T04:00:58.566Z,3.80
2023-05-01T04:03:27.394Z,3.53
2023-05-01T04:05:56.489Z,3.67
2023-05-01T04:08:25.691Z,4.25
2023-05-01T04:10:55.864Z,4.13
2023-05-01T04:13:24.603Z,4.60
2023-05-01T04:15:55.394Z,5.63
2023-05-01T04:18:24.277Z,3.95
2023-05-01T04:20:53.510Z,4.35
2023-05-01T04:23:23.722Z,4.82
2023-05-01T04:25:54.865Z,4.10
2023-05-01T04:28:23.557Z,4.18
2023-05-01T04:30:52.414Z,4.00
2023-05-01T04:33:21.043Z,4.10
2023-05-01T04:35:50.158Z,4.13
2023-05-01T04:38:19.198Z,4.28
2023-05-01T04:40:48.174Z,4.38
2023-05-01T04:43:18.530Z,3.63
2023-05-01T04:45:47.123Z,3.90
2023-05-01T04:48:16.105Z,4.20
2023-05-01T04:50:45.299Z,3.78
2023-05-01T04:53:14.649Z,4.60
2023-05-01T04:55:43.417Z,4.47
2023-05-01T04:58:12.264Z,4.10
2023-05-01T05:00:42.337Z,4.05
2023-05-01T05:03:11.454Z,4.60
2023-05-01T05:05:43.124Z,4.50
2023-05-01T05:08:11.977Z,3.70
2023-05-01T05:10:40.787Z,5.47
2023-05-01T05:13:10.126Z,4.13
2023-05-01T05:15:38.805Z,5.18
2023-05-01T05:18:08.934Z,4.40
2023-05-01T05:20:40.859Z,4.85
2023-05-01T05:23:09.500Z,4.60
2023-05-01T05:25:38.329Z,4.13
2023-05-01T05:28:07.074Z,4.57
2023-05-01T05:30:36.469Z,4.32
2023-05-01T05:33:05.459Z,4.65
2023-05-01T05:35:35.528Z,4.70
2023-05-01T05:38:04.320Z,5.03
2023-05-01T05:40:33.423Z,4.80
2023-05-01T05:43:02.091Z,4.65
2023-05-01T05:45:30.768Z,4.95
2023-05-01T05:47:59.464Z,4.40
2023-05-01T05:50:28.449Z,5.13
2023-05-01T05:52:58.557Z,5.22
2023-05-01T05:55:28.170Z,4.95
2023-05-01T05:57:56.933Z,5.28
2023-05-01T06:00:25.871Z,5.43
2023-05-01T06:02:54.692Z,10.75
2023-05-01T06:05:23.583Z,5.75
2023-05-01T06:07:52.463Z,18.88
2023-05-01T06:10:22.921Z,16.45
2023-05-01T06:12:57.388Z,12.63
2023-05-01T06:15:40.764Z,13.18
2023-05-01T06:18:09.771Z,21.42
2023-05-01T06:20:38.721Z,10.00
2023-05-01T06:23:08.654Z,7.10
2023-05-01T06:25:38.909Z,10.32
2023-05-01T06:28:07.697Z,8.63
2023-05-01T06:30:36.275Z,14.73
2023-05-01T06:33:05.167Z,14.02
2023-05-01T06:35:33.885Z,7.65
2023-05-01T06:38:03.164Z,8.75
2023-05-01T06:40:34.842Z,6.10
2023-05-01T06:43:05.963Z,6.25
2023-05-01T06:45:34.755Z,5.80
2023-05-01T06:48:03.398Z,14.50
2023-05-01T06:50:32.165Z,7.10
2023-05-01T06:53:02.816Z,6.40
2023-05-01T06:55:34.537Z,5.38
2023-05-01T06:58:12.688Z,6.60
2023-05-01T07:00:51.964Z,5.28
2023-05-01T07:03:20.692Z,5.82
2023-05-01T07:05:49.352Z,6.45
2023-05-01T07:08:18.108Z,5.65
2023-05-01T07:10:46.836Z,6.25
2023-05-01T07:13:18.402Z,6.45
2023-05-01T07:15:47.089Z,7.05
2023-05-01T07:18:17.160Z,7.32
2023-05-01T07:20:46.090Z,7.25
2023-05-01T07:23:14.850Z,7.68
2023-05-01T07:25:46.127Z,7.18
2023-05-01T07:28:18.326Z,7.03
2023-05-01T07:30:46.972Z,7.13
2023-05-01T07:33:15.679Z,7.60
2023-05-01T07:35:44.523Z,15.23
2023-05-01T07:38:14.091Z,10.32
2023-05-01T07:40:42.742Z,8.23
2023-05-01T07:43:11.905Z,6.78
2023-05-01T07:45:43.085Z,7.15
2023-05-01T07:48:12.014Z,8.40
2023-05-01T07:50:40.945Z,7.70
2023-05-01T07:53:09.590Z,7.65
2023-05-01T07:55:38.665Z,7.25
2023-05-01T07:58:07.341Z,7.32
2023-05-01T08:00:37.153Z,6.18
2023-05-01T08:03:07.656Z,6.82
2023-05-01T08:05:36.580Z,13.45
2023-05-01T08:08:06.332Z,7.50
2023-05-01T08:10:35.256Z,7.43
2023-05-01T08:13:04.159Z,6.63
2023-05-01T08:15:32.944Z,7.22
2023-05-01T08:18:01.811Z,7.00
2023-05-01T08:20:32.185Z,7.55
2023-05-01T08:23:00.832Z,7.60
2023-05-01T08:25:29.663Z,7.03
2023-05-01T08:27:58.898Z,7.15
2023-05-01T08:30:28.097Z,7.50
2023-05-01T08:32:56.841Z,6.57
2023-05-01T08:35:25.542Z,7.38
2023-05-01T08:37:56.448Z,8.05
2023-05-01T08:40:27.858Z,7.72
2023-05-01T08:42:57.305Z,8.30
2023-05-01T08:45:27.326Z,9.43
2023-05-01T08:47:57.268Z,8.27
2023-05-01T08:50:29.030Z,7.43
2023-05-01T08:53:00.969Z,8.85
2023-05-01T08:55:32.221Z,7.72
2023-05-01T08:58:02.819Z,6.85
2023-05-01T09:00:34.465Z,8.88
2023-05-01T09:03:05.501Z,6.78
2023-05-01T09:05:35.863Z,6.43
2023-05-01T09:08:06.165Z,7.32
2023-05-01T09:10:40.591Z,6.03
2023-05-01T09:13:10.117Z,5.53
2023-05-01T09:15:39.394Z,5.13
2023-05-01T09:18:10.822Z,4.97
2023-05-01T09:20:39.914Z,5.22
2023-05-01T09:23:10.238Z,4.53
2023-05-01T09:25:39.218Z,4.22
2023-05-01T09:28:08.600Z,4.75
2023-05-01T09:30:39.288Z,21.15
2023-05-01T09:33:10.261Z,16.23
2023-05-01T09:35:53.712Z,9.55
2023-05-01T09:38:25.846Z,5.53
2023-05-01T09:40:58.027Z,4.55
2023-05-01T09:43:27.961Z,4.63
2023-05-01T09:46:06.860Z,4.18
2023-05-01T09:48:36.162Z,5.07
2023-05-01T09:51:23.427Z,4.32
2023-05-01T09:53:55.454Z,4.47
2023-05-01T09:56:24.677Z,3.78
2023-05-01T09:58:54.560Z,4.85
2023-05-01T10:01:40.610Z,5.18
2023-05-01T10:04:10.220Z,5.32
2023-05-01T10:06:40.335Z,4.10
2023-05-01T10:09:17.046Z,4.15
2023-05-01T10:11:52.206Z,4.00
2023-05-01T10:14:23.921Z,4.22
2023-05-01T10:16:53.319Z,3.47
2023-05-01T10:19:22.423Z,3.97
2023-05-01T10:21:52.052Z,3.72
2023-05-01T10:24:22.367Z,4.18
2023-05-01T10:26:52.132Z,3.55
2023-05-01T10:29:24.687Z,4.57
2023-05-01T10:31:54.057Z,13.35
2023-05-01T10:34:27.067Z,5.50
2023-05-01T10:37:04.015Z,7.90
2023-05-01T10:39:35.866Z,4.60
2023-05-01T10:42:11.556Z,4.22
2023-05-01T10:44:40.420Z,4.32
2023-05-01T10:47:46.704Z,4.35
2023-05-01T10:50:17.990Z,4.00
2023-05-01T10:53:18.447Z,3.00
2023-05-01T10:55:50.511Z,3.10
2023-05-01T10:58:57.907Z,3.35
2023-05-01T11:01:35.698Z,3.15
2023-05-01T11:04:08.323Z,3.30
2023-05-01T11:06:38.446Z,3.15
2023-05-01T11:09:38.962Z,3.13
2023-05-01T11:12:11.657Z,2.42
2023-05-01T11:15:07.904Z,2.50
2023-05-01T11:17:50.716Z,2.67
2023-05-01T11:20:51.774Z,3.00
2023-05-01T11:23:22.442Z,2.58
2023-05-01T11:25:51.858Z,5.95
2023-05-01T11:28:24.707Z,16.27
2023-05-01T11:30:54.687Z,5.45
2023-05-01T11:33:27.671Z,5.47
2023-05-01T11:36:05.123Z,2.80
2023-05-01T11:38:34.054Z,3.65
2023-05-01T11:41:04.945Z,2.80
2023-05-01T11:43:35.035Z,3.22
2023-05-01T11:46:04.209Z,2.60
2023-05-01T11:48:33.717Z,2.47
2023-05-01T11:51:02.404Z,2.55
2023-05-01T11:53:32.001Z,3.08
2023-05-01T11:56:01.065Z,2.40
2023-05-01T11:58:36.673Z,2.33
2023-05-01T12:01:07.486Z,4.45
2023-05-01T12:03:44.020Z,2.00
2023-05-01T12:06:14.382Z,3.65
2023-05-01T12:08:51.247Z,12.05
2023-05-01T12:11:21.541Z,3.33
2023-05-01T12:13:51.979Z,2.65
2023-05-01T12:16:20.829Z,2.53
2023-05-01T12:18:49.689Z,2.33
2023-05-01T12:21:19.077Z,2.60
2023-05-01T12:23:48.078Z,2.25
2023-05-01T12:26:23.769Z,2.08
2023-05-01T12:28:58.256Z,2.17
2023-05-01T12:31:28.558Z,2.45
2023-05-01T12:33:59.347Z,2.08
2023-05-01T12:36:32.014Z,1.80
2023-05-01T12:39:03.584Z,2.38
2023-05-01T12:41:44.496Z,2.10
2023-05-01T12:44:25.644Z,2.70
2023-05-01T12:47:01.498Z,2.47
2023-05-01T12:49:32.785Z,2.25
2023-05-01T12:52:03.869Z,2.35
2023-05-01T12:54:34.595Z,2.13
2023-05-01T12:57:11.855Z,2.60
2023-05-01T12:59:44.535Z,2.15
2023-05-01T13:02:16.419Z,2.30
2023-05-01T13:04:46.523Z,2.30
2023-05-01T13:07:17.783Z,2.70
2023-05-01T13:09:59.196Z,1.95
2023-05-01T13:12:29.595Z,2.58
2023-05-01T13:15:00.398Z,2.10
2023-05-01T13:17:31.868Z,2.30
2023-05-01T13:20:02.515Z,7.93
2023-05-01T13:22:33.608Z,2.63
2023-05-01T13:25:05.010Z,4.05
2023-05-01T13:27:33.926Z,3.33
2023-05-01T13:30:04.151Z,2.38
2023-05-01T13:32:33.897Z,2.08
2023-05-01T13:35:03.587Z,19.10
2023-05-01T13:37:32.534Z,9.55
2023-05-01T13:40:01.466Z,10.10
2023-05-01T13:42:30.799Z,6.40
2023-05-01T13:45:00.318Z,3.33
2023-05-01T13:47:31.307Z,2.88
2023-05-01T13:50:00.582Z,2.47
2023-05-01T13:52:29.545Z,2.00
2023-05-01T13:54:58.648Z,2.38
2023-05-01T13:57:28.700Z,1.60
2023-05-01T13:59:57.496Z,1.70
2023-05-01T14:02:30.583Z,2.50
2023-05-01T14:05:00.945Z,4.30
2023-05-01T14:07:30.041Z,3.30
2023-05-01T14:10:00.932Z,2.50
2023-05-01T14:12:32.262Z,2.08
2023-05-01T14:15:01.744Z,2.50
2023-05-01T14:17:34.735Z,2.72
2023-05-01T14:20:04.951Z,2.35
2023-05-01T14:22:44.590Z,2.88
2023-05-01T14:25:25.931Z,2.90
2023-05-01T14:27:56.148Z,2.40
2023-05-01T14:30:33.450Z,2.25
2023-05-01T14:33:06.277Z,2.30
2023-05-01T14:35:36.397Z,1.95
2023-05-01T14:38:11.309Z,2.20
2023-05-01T14:40:42.988Z,1.67
2023-05-01T14:43:17.639Z,1.50
2023-05-01T14:45:49.767Z,2.20
2023-05-01T14:48:25.058Z,1.85
2023-05-01T14:50:55.324Z,2.10
2023-05-01T14:53:27.795Z,2.17
2023-05-01T14:55:56.739Z,1.58
2023-05-01T14:58:25.679Z,2.30
2023-05-01T15:00:54.553Z,2.10
2023-05-01T15:03:24.916Z,2.08
2023-05-01T15:05:54.428Z,1.73
2023-05-01T15:08:24.194Z,1.92
2023-05-01T15:10:53.714Z,2.00
2023-05-01T15:13:22.633Z,2.03
2023-05-01T15:15:51.632Z,1.50
2023-05-01T15:18:20.738Z,1.40
2023-05-01T15:20:51.086Z,1.40
2023-05-01T15:23:19.955Z,2.13
2023-05-01T15:25:50.982Z,1.83
2023-05-01T15:28:20.020Z,1.77
2023-05-01T15:30:49.343Z,1.48
2023-05-01T15:33:19.259Z,1.30
2023-05-01T15:35:51.232Z,1.60
2023-05-01T15:38:21.831Z,4.40
2023-05-01T15:40:51.361Z,13.40
2023-05-01T15:43:21.259Z,10.30
2023-05-01T15:45:50.340Z,5.20
2023-05-01T15:48:19.368Z,1.88
2023-05-01T15:50:49.100Z,2.30
2023-05-01T15:53:21.127Z,2.00
2023-05-01T15:55:50.077Z,2.10
2023-05-01T15:58:19.107Z,2.00
2023-05-01T16:00:49.577Z,1.75
2023-05-01T16:03:19.223Z,1.65
2023-05-01T16:05:48.376Z,1.90
2023-05-01T16:08:19.930Z,1.67
2023-05-01T16:10:49.094Z,1.92
2023-05-01T16:13:18.238Z,2.00
2023-05-01T16:15:49.344Z,1.75
2023-05-01T16:18:24.719Z,1.70
2023-05-01T16:20:54.958Z,1.42
2023-05-01T16:23:27.516Z,7.30
2023-05-01T16:25:56.520Z,7.38
2023-05-01T16:28:26.740Z,9.23
2023-05-01T16:30:57.494Z,5.40
2023-05-01T16:33:28.388Z,7.82
2023-05-01T16:35:57.508Z,6.10
2023-05-01T16:38:44.389Z,3.63
2023-05-01T16:41:18.382Z,3.30
2023-05-01T16:43:47.844Z,2.63
2023-05-01T16:46:18.114Z,1.67
2023-05-01T16:48:47.173Z,1.85
2023-05-01T16:51:16.042Z,1.90
2023-05-01T16:53:46.448Z,1.85
2023-05-01T16:56:15.362Z,1.95
2023-05-01T16:58:44.823Z,1.90
2023-05-01T17:01:13.724Z,1.92
2023-05-01T17:03:42.671Z,2.00
2023-05-01T17:06:11.764Z,2.22
2023-05-01T17:08:41.143Z,1.58
2023-05-01T17:12:17.035Z,1.90
2023-05-01T17:14:04.221Z,1.50
2023-05-01T17:16:34.016Z,1.60
2023-05-01T17:19:08.884Z,1.60
2023-05-01T17:21:37.927Z,1.70
2023-05-01T17:24:07.321Z,2.15
2023-05-01T17:26:37.475Z,1.67
2023-05-01T17:29:06.263Z,1.58
2023-05-01T17:31:35.185Z,2.20
2023-05-01T17:34:04.099Z,1.83
2023-05-01T17:36:33.049Z,2.40
2023-05-01T17:39:02.388Z,2.05
2023-05-01T17:41:31.018Z,1.98
2023-05-01T17:44:01.108Z,6.38
2023-05-01T17:46:30.023Z,10.57
2023-05-01T17:48:58.919Z,20.25
2023-05-01T17:51:27.732Z,7.82
2023-05-01T17:53:56.755Z,25.52
2023-05-01T17:56:26.043Z,26.90
2023-05-01T17:58:54.873Z,14.05
2023-05-01T18:01:25.235Z,4.65
2023-05-01T18:03:54.362Z,4.97
2023-05-01T18:06:23.588Z,2.20
2023-05-01T18:08:52.486Z,2.63
2023-05-01T18:11:21.607Z,2.30
2023-05-01T18:13:50.964Z,2.60
2023-05-01T18:16:20.154Z,2.90
2023-05-01T18:18:50.714Z,3.05
2023-05-01T18:21:19.590Z,3.20
2023-05-01T18:23:48.911Z,3.42
2023-05-01T18:26:19.330Z,3.22
2023-05-01T18:28:48.262Z,3.47
2023-05-01T18:31:17.467Z,3.30
2023-05-01T18:33:47.298Z,3.50
2023-05-01T18:36:17.487Z,2.90
2023-05-01T18:38:48.288Z,3.08
2023-05-01T18:41:17.137Z,3.10
2023-05-01T18:43:46.100Z,3.90
2023-05-01T18:46:15.176Z,4.40
2023-05-01T18:48:44.059Z,5.40
2023-05-01T18:51:14.111Z,3.20
2023-05-01T18:53:44.650Z,4.00
2023-05-01T18:56:13.515Z,4.05
2023-05-01T18:58:42.239Z,4.32
2023-05-01T19:01:11.271Z,4.10
2023-05-01T19:03:40.589Z,3.08
2023-05-01T19:06:10.624Z,3.60
2023-05-01T19:08:39.899Z,3.10
2023-05-01T19:11:10.434Z,3.42
2023-05-01T19:13:39.534Z,3.30
2023-05-01T19:16:08.534Z,3.40
2023-05-01T19:18:38.438Z,4.00
2023-05-01T19:21:07.348Z,3.85
2023-05-01T19:23:37.606Z,3.35
2023-05-01T19:26:08.154Z,3.40
2023-05-01T19:28:38.709Z,7.20
2023-05-01T19:31:08.021Z,4.40
2023-05-01T19:33:36.770Z,5.05
2023-05-01T19:36:05.859Z,4.20
2023-05-01T19:38:34.642Z,4.78
2023-05-01T19:41:03.501Z,4.55
2023-05-01T19:43:32.599Z,4.00
2023-05-01T19:46:02.974Z,3.75
2023-05-01T19:48:31.902Z,3.65
2023-05-01T19:51:00.746Z,3.70
2023-05-01T19:53:31.180Z,3.70
2023-05-01T19:56:00.751Z,3.50
2023-05-01T19:58:29.577Z,3.22
2023-05-01T20:01:02.343Z,3.25
2023-05-01T20:03:32.737Z,3.50
2023-05-01T20:06:01.469Z,3.40
2023-05-01T20:08:30.368Z,4.30
2023-05-01T20:11:01.680Z,4.22
2023-05-01T20:13:31.638Z,3.80
2023-05-01T20:16:00.726Z,4.63
2023-05-01T20:18:29.480Z,4.20
2023-05-01T20:20:59.585Z,4.22
2023-05-01T20:23:29.189Z,4.80
2023-05-01T20:25:57.904Z,4.68
2023-05-01T20:28:27.034Z,4.60
2023-05-01T20:30:55.899Z,4.10
2023-05-01T20:33:24.700Z,3.75
2023-05-01T20:35:54.128Z,3.42
2023-05-01T20:38:24.345Z,3.80
2023-05-01T20:40:53.475Z,3.80
2023-05-01T20:43:22.222Z,3.90
2023-05-01T20:45:50.897Z,3.97
2023-05-01T20:48:19.726Z,4.30
2023-05-01T20:50:49.892Z,4.00
2023-05-01T20:53:19.072Z,3.80
2023-05-01T20:55:49.964Z,3.20
2023-05-01T20:58:18.625Z,3.55
2023-05-01T21:00:47.344Z,3.90
2023-05-01T21:03:17.629Z,3.60
2023-05-01T21:05:46.422Z,3.40
2023-05-01T21:08:15.293Z,3.60
2023-05-01T21:10:44.083Z,3.80
2023-05-01T21:13:15.274Z,3.30
2023-05-01T21:15:44.194Z,3.33
2023-05-01T21:18:15.558Z,3.72
2023-05-01T21:20:46.248Z,3.80
2023-05-01T21:23:16.892Z,3.60
2023-05-01T21:25:45.907Z,3.50
2023-05-01T21:28:16.461Z,3.90
2023-05-01T21:30:45.234Z,3.47
2023-05-01T21:33:17.166Z,3.50
2023-05-01T21:35:47.909Z,3.83
2023-05-01T21:38:17.711Z,3.67
2023-05-01T21:40:47.146Z,3.70
2023-05-01T21:43:17.564Z,4.28
2023-05-01T21:45:46.485Z,4.47
2023-05-01T21:48:17.002Z,4.50
2023-05-01T21:50:49.892Z,4.43
2023-05-01T21:53:18.673Z,4.38
2023-05-01T21:55:47.614Z,4.13
2023-05-01T21:58:17.764Z,4.55
2023-05-01T22:00:47.983Z,4.68
2023-05-01T22:03:19.574Z,4.13
2023-05-01T22:05:48.272Z,4.18
2023-05-01T22:08:16.928Z,4.03
2023-05-01T22:10:45.731Z,4.57
2023-05-01T22:13:14.788Z,4.47
2023-05-01T22:15:48.765Z,4.53
2023-05-01T22:18:19.654Z,4.15
2023-05-01T22:20:48.392Z,3.83
2023-05-01T22:23:17.093Z,4.03
2023-05-01T22:25:46.392Z,3.67
2023-05-01T22:28:17.602Z,3.08
2023-05-01T22:30:48.240Z,3.10
2023-05-01T22:33:16.978Z,3.05
2023-05-01T22:35:45.689Z,2.97
2023-05-01T22:38:14.461Z,3.45
2023-05-01T22:40:43.099Z,3.28
2023-05-01T22:43:11.765Z,3.28
2023-05-01T22:45:40.368Z,3.78
2023-05-01T22:48:10.741Z,3.13
2023-05-01T22:50:39.509Z,3.35
2023-05-01T22:53:08.201Z,4.78
2023-05-01T22:55:37.593Z,4.72
2023-05-01T22:58:06.661Z,5.00
2023-05-01T23:00:35.372Z,5.38
2023-05-01T23:03:04.273Z,6.00
2023-05-01T23:05:34.525Z,4.18
2023-05-01T23:08:03.282Z,4.25
2023-05-01T23:10:33.764Z,4.88
2023-05-01T23:13:02.718Z,4.30
2023-05-01T23:15:31.351Z,3.55
2023-05-01T23:18:00.107Z,4.72
2023-05-01T23:20:28.938Z,3.50
2023-05-01T23:22:58.910Z,3.63
2023-05-01T23:25:28.442Z,5.97
2023-05-01T23:27:57.741Z,3.97
2023-05-01T23:30:26.430Z,3.63
2023-05-01T23:32:59.379Z,4.10
2023-05-01T23:35:28.193Z,3.38
2023-05-01T23:37:58.281Z,3.13
2023-05-01T23:40:27.130Z,3.28
2023-05-01T23:42:56.127Z,3.28
2023-05-01T23:45:27.497Z,4.93
2023-05-01T23:47:56.226Z,2.78
2023-05-01T23:50:25.475Z,4.60
2023-05-01T23:52:54.374Z,5.22
2023-05-01T23:55:24.576Z,3.67
2023-05-01T23:57:53.741Z,5.53
